Time;durP1;ratioP1;P1;durP2;ratioP2;P2;SDS_P1;SDS_P2;PMS_P1;PMS_P2;Temp;Humidity;BMP_temperature;BMP_pressure;BME280_temperature;BME280_humidity;BME280_pressure;Samples;Min_cycle;Max_cycle;Signal;HPM_P1;HPM_P2
2023/10/29 00:01:28;;;;;;;2.55;1.88;;;25.50;47.20;;;;;;5089452;28;20601;-65
2023/10/29 00:03:55;;;;;;;3.63;2.38;;;25.50;47.30;;;;;;5091116;28;20460;-67
2023/10/29 00:06:21;;;;;;;3.45;1.90;;;25.40;47.40;;;;;;5106673;28;20058;-67
2023/10/29 00:08:47;;;;;;;3.38;1.52;;;25.50;47.40;;;;;;5090755;28;20123;-67
2023/10/29 00:11:13;;;;;;;4.88;1.92;;;25.60;47.50;;;;;;5090213;28;20082;-67
2023/10/29 00:13:39;;;;;;;3.50;1.92;;;25.40;47.60;;;;;;5090530;28;20072;-66
2023/10/29 00:16:05;;;;;;;2.85;1.75;;;25.50;47.60;;;;;;5079712;28;20391;-67
2023/10/29 00:18:31;;;;;;;2.00;1.50;;;25.60;47.70;;;;;;5088705;28;20028;-67
2023/10/29 00:20:57;;;;;;;2.53;1.67;;;25.50;47.70;;;;;;5072037;28;20395;-67
2023/10/29 00:23:23;;;;;;;4.32;2.28;;;25.60;47.70;;;;;;5098552;28;20151;-68
2023/10/29 00:25:49;;;;;;;3.63;2.90;;;25.40;47.80;;;;;;5092152;28;20062;-67
2023/10/29 00:28:15;;;;;;;3.35;2.20;;;25.60;47.80;;;;;;5095448;28;20411;-68
2023/10/29 00:30:41;;;;;;;4.00;2.20;;;25.60;47.80;;;;;;5085168;28;20036;-66
2023/10/29 00:33:07;;;;;;;3.33;2.20;;;25.60;47.80;;;;;;5084481;28;20039;-66
2023/10/29 00:35:33;;;;;;;4.07;2.00;;;25.40;47.90;;;;;;5089575;28;20043;-66
2023/10/29 00:37:59;;;;;;;3.60;2.63;;;25.30;47.90;;;;;;5091664;28;20066;-68
2023/10/29 00:40:26;;;;;;;5.22;3.03;;;25.50;47.90;;;;;;5088854;28;20461;-67
2023/10/29 00:42:52;;;;;;;4.28;3.03;;;25.40;48.00;;;;;;5091653;28;20130;-68
2023/10/29 00:45:18;;;;;;;3.70;2.38;;;25.40;48.00;;;;;;5087694;28;20062;-66
2023/10/29 00:47:44;;;;;;;3.45;2.10;;;25.50;48.00;;;;;;5091022;28;20077;-68
2023/10/29 00:50:11;;;;;;;2.97;2.10;;;25.30;48.10;;;;;;5089759;28;20055;-67
2023/10/29 00:52:37;;;;;;;3.08;2.15;;;25.30;48.10;;;;;;5088642;28;20039;-67
2023/10/29 00:55:04;;;;;;;4.03;2.40;;;25.40;48.20;;;;;;5089210;28;20125;-68
2023/10/29 00:57:30;;;;;;;6.38;2.60;;;25.30;48.30;;;;;;5091046;28;20048;-68
2023/10/29 00:59:57;;;;;;;4.32;2.35;;;25.40;48.30;;;;;;5085054;28;20464;-66
2023/10/29 01:02:24;;;;;;;3.08;2.60;;;25.40;48.30;;;;;;5090119;28;20109;-65
2023/10/29 01:04:49;;;;;;;7.75;2.67;;;25.40;48.40;;;;;;5087758;28;20051;-67
2023/10/29 01:07:17;;;;;;;6.68;3.67;;;25.40;48.40;;;;;;5078876;28;20257;-66
2023/10/29 01:09:44;;;;;;;6.70;4.05;;;25.30;48.40;;;;;;5086922;28;20502;-66
2023/10/29 01:12:16;;;;;;;6.60;3.53;;;25.40;48.40;;;;;;5084707;28;20044;-68
2023/10/29 01:14:42;;;;;;;7.38;3.80;;;25.50;48.40;;;;;;5087530;28;20598;-65
2023/10/29 01:17:08;;;;;;;6.47;3.47;;;25.40;48.50;;;;;;5073828;28;20064;-66
2023/10/29 01:19:34;;;;;;;5.28;3.03;;;25.40;48.50;;;;;;5070819;28;20130;-67
2023/10/29 01:22:00;;;;;;;11.77;4.20;;;25.40;48.50;;;;;;5086775;28;20040;-66
2023/10/29 01:24:27;;;;;;;3.33;2.50;;;25.40;48.50;;;;;;5073132;28;20024;-66
2023/10/29 01:26:53;;;;;;;3.53;2.08;;;25.40;48.50;;;;;;5068187;28;20036;-66
2023/10/29 01:29:19;;;;;;;4.13;1.95;;;25.40;48.50;;;;;;5074935;28;20036;-68
2023/10/29 01:31:49;;;;;;;3.67;2.40;;;25.50;48.50;;;;;;5075450;28;20643;-67
2023/10/29 01:34:15;;;;;;;5.13;2.38;;;25.30;48.50;;;;;;5073042;28;20055;-67
2023/10/29 01:36:41;;;;;;;5.63;2.88;;;25.30;48.60;;;;;;5069662;28;20367;-66
2023/10/29 01:39:07;;;;;;;4.72;2.10;;;25.30;48.60;;;;;;5074662;28;20036;-65
2023/10/29 01:41:33;;;;;;;5.15;2.47;;;25.30;48.60;;;;;;5105589;28;20040;-66
2023/10/29 01:43:59;;;;;;;3.28;2.60;;;25.30;48.70;;;;;;5089243;28;20020;-67
2023/10/29 01:46:25;;;;;;;5.90;2.22;;;25.20;48.70;;;;;;5099839;28;20032;-65
2023/10/29 01:48:51;;;;;;;2.70;1.60;;;25.30;48.80;;;;;;5103113;28;20048;-66
2023/10/29 01:51:17;;;;;;;2.47;1.48;;;25.20;48.80;;;;;;5075171;28;20032;-67
2023/10/29 01:53:43;;;;;;;2.45;1.75;;;25.30;48.90;;;;;;5094308;28;20510;-66
2023/10/29 01:56:09;;;;;;;2.97;2.00;;;25.30;48.90;;;;;;5074900;28;20049;-68
2023/10/29 01:58:35;;;;;;;4.78;2.22;;;25.10;48.90;;;;;;5090098;28;20448;-66
2023/10/29 02:01:07;;;;;;;4.22;1.85;;;25.30;48.90;;;;;;5075186;28;20111;-67
2023/10/29 02:03:33;;;;;;;3.38;1.92;;;25.30;48.90;;;;;;5091013;28;20491;-66
2023/10/29 02:06:00;;;;;;;2.85;1.70;;;25.20;49.00;;;;;;5107481;28;20063;-67
2023/10/29 02:08:26;;;;;;;3.33;2.13;;;25.30;49.00;;;;;;5093587;28;20036;-66
2023/10/29 02:10:52;;;;;;;3.15;2.15;;;25.30;49.00;;;;;;5094842;28;20117;-67
2023/10/29 02:13:18;;;;;;;1.70;1.48;;;25.20;49.00;;;;;;5094704;28;20147;-67
2023/10/29 02:15:45;;;;;;;4.03;1.92;;;25.30;49.00;;;;;;5090243;28;20028;-67
2023/10/29 02:18:11;;;;;;;7.40;2.28;;;25.30;49.00;;;;;;5093522;28;20381;-65
2023/10/29 02:20:38;;;;;;;4.05;2.28;;;25.30;49.00;;;;;;5077258;28;20043;-67
2023/10/29 02:23:05;;;;;;;3.97;2.28;;;25.30;49.00;;;;;;5083082;28;20379;-67
2023/10/29 02:25:31;;;;;;;3.63;2.38;;;25.30;49.00;;;;;;5087456;28;20040;-65
2023/10/29 02:27:57;;;;;;;5.07;2.03;;;25.20;49.00;;;;;;5038044;28;20037;-67
2023/10/29 02:30:23;;;;;;;5.15;2.65;;;25.30;49.10;;;;;;5084153;28;20049;-66
2023/10/29 02:32:49;;;;;;;3.00;2.00;;;25.10;49.10;;;;;;5094690;28;20036;-68
2023/10/29 02:35:15;;;;;;;3.92;1.80;;;25.20;49.10;;;;;;5092034;28;20611;-68
2023/10/29 02:37:41;;;;;;;3.25;2.03;;;25.20;49.10;;;;;;5110738;28;20043;-67
2023/10/29 02:40:09;;;;;;;2.25;1.50;;;25.20;49.10;;;;;;5100056;28;20514;-64
2023/10/29 02:42:34;;;;;;;3.33;1.60;;;25.20;49.20;;;;;;5087786;28;20051;-67
2023/10/29 02:45:00;;;;;;;3.00;1.90;;;25.10;49.20;;;;;;5075262;28;20040;-67
2023/10/29 02:47:26;;;;;;;4.10;2.05;;;25.20;49.20;;;;;;5086109;28;20074;-67
2023/10/29 02:49:52;;;;;;;3.67;2.42;;;25.10;49.30;;;;;;5085533;28;20036;-66
2023/10/29 02:52:18;;;;;;;3.40;2.13;;;25.30;49.30;;;;;;5073746;28;20045;-67
2023/10/29 02:54:44;;;;;;;2.88;2.35;;;25.20;49.30;;;;;;5078449;28;20479;-67
2023/10/29 02:57:13;;;;;;;8.07;2.70;;;25.20;49.30;;;;;;5091315;28;20079;-67
2023/10/29 02:59:39;;;;;;;3.65;2.47;;;25.20;49.30;;;;;;5092241;28;20075;-67
2023/10/29 03:02:05;;;;;;;3.75;2.50;;;25.10;49.30;;;;;;5090943;28;20741;-67
2023/10/29 03:04:33;;;;;;;4.80;2.20;;;25.10;49.40;;;;;;5085411;28;20036;-67
2023/10/29 03:06:59;;;;;;;4.18;2.35;;;25.20;49.30;;;;;;5090550;28;20403;-67
2023/10/29 03:09:25;;;;;;;2.38;1.92;;;25.20;49.30;;;;;;5093517;28;20099;-67
2023/10/29 03:11:51;;;;;;;4.75;2.75;;;25.30;49.30;;;;;;5091767;28;20024;-67
2023/10/29 03:14:17;;;;;;;2.85;2.13;;;25.10;49.30;;;;;;5091761;28;20407;-67
2023/10/29 03:16:43;;;;;;;6.57;3.42;;;25.20;49.30;;;;;;5077505;28;20039;-67
2023/10/29 03:19:09;;;;;;;5.80;2.80;;;25.10;49.40;;;;;;5079420;28;20367;-67
2023/10/29 03:21:36;;;;;;;6.32;2.92;;;25.10;49.40;;;;;;5092336;28;20034;-67
2023/10/29 03:24:02;;;;;;;3.97;2.35;;;25.10;49.40;;;;;;5081673;28;20035;-68
2023/10/29 03:26:28;;;;;;;3.60;2.78;;;25.10;49.40;;;;;;5089457;28;20044;-66
2023/10/29 03:28:54;;;;;;;7.05;2.65;;;25.10;49.40;;;;;;5090234;28;20031;-67
2023/10/29 03:31:23;;;;;;;4.50;2.60;;;25.10;49.40;;;;;;5085076;28;20044;-66
2023/10/29 03:33:49;;;;;;;6.95;3.08;;;25.10;49.40;;;;;;5088232;28;20087;-66
2023/10/29 03:36:15;;;;;;;3.15;2.42;;;25.10;49.40;;;;;;5073929;28;20052;-68
2023/10/29 03:38:41;;;;;;;5.05;2.85;;;25.10;49.50;;;;;;5091561;28;20472;-67
2023/10/29 03:41:19;;;;;;;4.03;2.63;;;25.00;49.60;;;;;;5089759;28;20507;-66
2023/10/29 03:43:45;;;;;;;4.05;2.60;;;25.00;49.60;;;;;;5074264;28;20039;-68
2023/10/29 03:46:11;;;;;;;4.03;2.58;;;25.10;49.60;;;;;;5076316;28;20077;-66
2023/10/29 03:48:42;;;;;;;4.65;2.78;;;25.00;49.60;;;;;;5072756;28;20109;-67
2023/10/29 03:51:08;;;;;;;5.28;2.85;;;25.00;49.60;;;;;;5105460;27;20070;-67
2023/10/29 03:53:34;;;;;;;6.53;3.70;;;25.00;49.60;;;;;;5087209;28;20384;-65
2023/10/29 03:56:01;;;;;;;6.15;3.20;;;25.20;49.60;;;;;;5073992;28;20040;-68
2023/10/29 03:58:27;;;;;;;3.83;3.00;;;25.10;49.60;;;;;;5087979;28;20044;-68
2023/10/29 04:00:53;;;;;;;6.32;4.38;;;25.00;49.60;;;;;;5082054;28;20040;-67
2023/10/29 04:03:19;;;;;;;5.28;3.30;;;25.10;49.60;;;;;;5072674;28;20063;-67
2023/10/29 04:05:45;;;;;;;4.45;3.55;;;25.10;49.60;;;;;;5084464;28;20031;-67
2023/10/29 04:08:11;;;;;;;4.05;3.08;;;25.10;49.60;;;;;;5075780;28;20045;-66
2023/10/29 04:10:37;;;;;;;5.18;3.17;;;25.10;49.50;;;;;;5083679;28;20040;-67
2023/10/29 04:13:03;;;;;;;4.97;2.40;;;25.00;49.50;;;;;;5090294;28;20474;-65
2023/10/29 04:15:29;;;;;;;3.42;2.10;;;25.00;49.60;;;;;;5088062;28;20051;-67
2023/10/29 04:17:55;;;;;;;4.53;2.03;;;25.10;49.60;;;;;;5092292;28;20047;-67
2023/10/29 04:20:23;;;;;;;5.38;2.60;;;25.00;49.60;;;;;;5090629;28;20028;-67
2023/10/29 04:22:49;;;;;;;2.25;1.90;;;25.00;49.60;;;;;;5083262;28;20020;-68
2023/10/29 04:25:15;;;;;;;2.80;1.95;;;25.10;49.70;;;;;;5073150;28;20519;-68
2023/10/29 04:27:41;;;;;;;3.15;2.17;;;25.00;49.70;;;;;;5072343;28;20491;-67
2023/10/29 04:30:07;;;;;;;4.97;3.33;;;24.90;49.70;;;;;;5074946;28;20081;-67
2023/10/29 04:32:33;;;;;;;4.88;2.97;;;25.00;49.70;;;;;;5072317;28;20037;-67
2023/10/29 04:34:59;;;;;;;6.82;3.28;;;25.00;49.70;;;;;;5084992;28;20038;-68
2023/10/29 04:37:25;;;;;;;5.50;3.28;;;24.80;49.70;;;;;;5083866;28;20484;-67
2023/10/29 04:39:51;;;;;;;7.03;3.58;;;25.00;49.80;;;;;;5071572;28;20060;-67
2023/10/29 04:42:17;;;;;;;10.80;3.92;;;25.00;49.80;;;;;;5072917;28;20455;-67
2023/10/29 04:44:43;;;;;;;7.18;3.95;;;25.00;49.80;;;;;;5086369;28;20040;-67
2023/10/29 04:47:09;;;;;;;6.47;3.65;;;24.90;49.80;;;;;;5088523;27;20384;-67
2023/10/29 04:49:35;;;;;;;5.10;3.08;;;25.00;49.80;;;;;;5079812;28;20106;-64
2023/10/29 04:52:01;;;;;;;6.95;3.70;;;25.00;49.80;;;;;;5090327;28;20435;-67
2023/10/29 04:54:27;;;;;;;9.75;3.80;;;24.80;49.70;;;;;;5074875;28;20044;-67
2023/10/29 04:56:53;;;;;;;4.63;3.88;;;24.90;49.80;;;;;;5072691;28;20036;-67
2023/10/29 04:59:19;;;;;;;8.60;3.90;;;25.00;49.80;;;;;;5087146;28;20031;-66
2023/10/29 05:01:45;;;;;;;8.35;4.70;;;25.00;49.80;;;;;;5077270;28;20086;-67
2023/10/29 05:04:11;;;;;;;10.85;4.95;;;25.00;49.80;;;;;;5072302;28;20066;-67
2023/10/29 05:06:37;;;;;;;9.93;4.60;;;25.00;49.80;;;;;;5079578;28;20114;-67
2023/10/29 05:09:03;;;;;;;7.88;4.40;;;25.00;49.80;;;;;;5090550;28;20114;-64
2023/10/29 05:11:31;;;;;;;6.60;4.20;;;25.00;49.80;;;;;;5071445;28;20035;-66
2023/10/29 05:13:57;;;;;;;6.80;4.43;;;25.00;49.80;;;;;;5096844;28;20048;-66
2023/10/29 05:16:23;;;;;;;10.18;5.05;;;25.00;49.80;;;;;;5072318;28;20044;-67
2023/10/29 05:18:49;;;;;;;10.45;4.70;;;25.00;49.80;;;;;;5074908;28;20043;-68
2023/10/29 05:21:15;;;;;;;8.48;4.60;;;25.00;49.80;;;;;;5090554;28;20442;-68
2023/10/29 05:23:42;;;;;;;16.70;5.05;;;24.90;49.90;;;;;;5078439;28;20036;-67
2023/10/29 05:26:08;;;;;;;6.45;4.03;;;25.00;49.90;;;;;;5080751;28;20082;-67
2023/10/29 05:28:34;;;;;;;7.32;3.88;;;24.80;49.80;;;;;;5089863;28;20044;-67
2023/10/29 05:31:00;;;;;;;6.15;3.70;;;24.90;50.00;;;;;;5102685;28;20040;-67
2023/10/29 05:33:26;;;;;;;11.32;6.05;;;24.80;50.00;;;;;;5095597;28;20086;-67
2023/10/29 05:35:52;;;;;;;11.02;4.22;;;24.90;50.00;;;;;;5086157;28;20048;-67
2023/10/29 05:38:18;;;;;;;7.38;3.88;;;24.80;50.00;;;;;;5069640;28;20040;-66
2023/10/29 05:40:44;;;;;;;9.43;3.13;;;24.90;50.00;;;;;;5073282;28;20039;-68
2023/10/29 05:43:09;;;;;;;7.35;3.60;;;24.90;50.10;;;;;;5071408;28;20060;-66
2023/10/29 05:45:35;;;;;;;7.82;3.35;;;24.90;50.00;;;;;;5071060;28;20028;-67
2023/10/29 05:48:02;;;;;;;7.35;3.55;;;24.90;50.00;;;;;;5070988;28;20086;-67
2023/10/29 05:50:28;;;;;;;7.07;3.63;;;24.80;50.00;;;;;;5070721;28;20380;-65
2023/10/29 05:52:54;;;;;;;6.47;3.92;;;24.90;50.00;;;;;;5070599;28;20094;-67
2023/10/29 05:55:22;;;;;;;6.50;4.20;;;24.90;50.10;;;;;;5070606;28;20064;-66
2023/10/29 05:57:49;;;;;;;9.55;4.55;;;25.00;50.10;;;;;;5074692;28;20040;-68
2023/10/29 06:00:15;;;;;;;8.80;4.65;;;25.00;50.00;;;;;;5077772;28;20039;-65
2023/10/29 06:02:41;;;;;;;7.97;5.30;;;25.00;50.00;;;;;;5086783;28;20024;-66
2023/10/29 06:05:08;;;;;;;5.50;4.53;;;25.00;49.90;;;;;;5088135;28;20032;-66
2023/10/29 06:07:36;;;;;;;8.75;4.53;;;24.90;49.90;;;;;;5088103;28;20032;-67
2023/10/29 06:10:03;;;;;;;8.05;4.88;;;24.80;49.90;;;;;;5087443;28;20059;-68
2023/10/29 06:12:29;;;;;;;2.30;1.90;;;24.80;50.00;;;;;;5086392;28;20051;-66
2023/10/29 06:14:54;;;;;;;2.30;2.10;;;24.90;51.20;;;;;;5089257;28;20048;-66
2023/10/29 06:17:21;;;;;;;3.90;2.22;;;25.00;51.70;;;;;;5088614;28;20035;-68
2023/10/29 06:19:47;;;;;;;3.30;2.28;;;25.10;51.20;;;;;;5083557;28;20064;-67
2023/10/29 06:22:13;;;;;;;7.95;2.90;;;25.20;50.90;;;;;;5088674;28;20468;-67
2023/10/29 06:24:39;;;;;;;5.47;2.42;;;25.30;48.20;;;;;;5089991;28;20043;-67
2023/10/29 06:27:05;;;;;;;4.47;2.95;;;25.30;47.10;;;;;;5069620;28;20040;-68
2023/10/29 06:29:31;;;;;;;3.28;2.70;;;25.30;45.80;;;;;;5090692;28;20024;-66
2023/10/29 06:31:57;;;;;;;9.10;3.38;;;25.20;45.10;;;;;;5081579;28;20028;-68
2023/10/29 06:34:23;;;;;;;9.30;3.38;;;25.30;43.50;;;;;;5078110;28;20105;-66
2023/10/29 06:36:49;;;;;;;5.60;2.85;;;25.20;44.40;;;;;;5073973;28;20098;-66
2023/10/29 06:39:16;;;;;;;5.07;3.72;;;25.30;44.60;;;;;;5074110;28;20035;-68
2023/10/29 06:41:42;;;;;;;5.47;3.63;;;25.30;44.30;;;;;;5084145;28;20456;-68
2023/10/29 06:44:08;;;;;;;4.90;3.28;;;25.30;44.70;;;;;;5089299;28;20045;-67
2023/10/29 06:46:34;;;;;;;8.90;4.43;;;25.30;43.40;;;;;;5087106;28;20040;-66
2023/10/29 06:49:00;;;;;;;7.03;5.47;;;25.30;44.50;;;;;;5082723;28;20040;-67
2023/10/29 06:51:26;;;;;;;5.93;4.32;;;25.30;46.50;;;;;;5090468;28;20055;-68
2023/10/29 06:53:52;;;;;;;5.60;5.03;;;25.30;44.40;;;;;;5092379;28;20040;-67
2023/10/29 06:56:18;;;;;;;7.90;5.38;;;25.30;45.00;;;;;;5089724;28;20154;-67
2023/10/29 06:58:44;;;;;;;6.68;4.80;;;25.30;45.40;;;;;;5092420;28;20151;-67
2023/10/29 07:01:11;;;;;;;5.90;3.67;;;25.40;45.50;;;;;;5084688;28;20345;-67
2023/10/29 07:03:37;;;;;;;5.53;3.58;;;25.40;45.70;;;;;;5075439;28;20043;-67
2023/10/29 07:06:11;;;;;;;9.18;2.63;;;25.40;49.10;;;;;;5085105;28;20039;-67
2023/10/29 07:08:37;;;;;;;4.15;3.00;;;25.50;50.80;;;;;;5090817;28;20032;-67
2023/10/29 07:11:04;;;;;;;7.38;3.97;;;25.40;50.80;;;;;;5085712;28;20391;-67
2023/10/29 07:13:31;;;;;;;7.95;3.67;;;25.40;51.20;;;;;;5080278;28;20066;-69
2023/10/29 07:16:00;;;;;;;7.10;3.67;;;25.40;50.90;;;;;;5085773;28;20045;-69
2023/10/29 07:18:26;;;;;;;4.15;2.65;;;25.50;50.90;;;;;;5074024;28;20041;-70
2023/10/29 07:20:53;;;;;;;4.30;2.53;;;25.50;50.90;;;;;;5080947;28;20024;-68
2023/10/29 07:23:20;;;;;;;5.90;2.30;;;25.60;52.00;;;;;;5085428;28;20020;-68
2023/10/29 07:25:47;;;;;;;5.20;3.17;;;25.50;51.50;;;;;;5088801;28;20457;-67
2023/10/29 07:28:17;;;;;;;4.22;2.63;;;25.70;51.60;;;;;;5082073;28;20044;-65
2023/10/29 07:30:43;;;;;;;5.70;3.65;;;25.60;51.10;;;;;;5090445;28;20727;-71
2023/10/29 07:33:10;;;;;;;7.57;3.92;;;25.60;52.20;;;;;;5089338;28;20476;-69
2023/10/29 07:35:37;;;;;;;7.75;3.70;;;25.70;52.20;;;;;;5085333;28;20032;-70
2023/10/29 07:38:03;;;;;;;6.55;3.75;;;25.70;53.40;;;;;;5085166;28;20043;-67
2023/10/29 07:40:29;;;;;;;4.63;3.55;;;25.60;53.90;;;;;;5090756;28;20074;-66
2023/10/29 07:42:55;;;;;;;5.95;3.33;;;25.70;53.00;;;;;;5085548;28;20040;-67
2023/10/29 07:45:21;;;;;;;7.55;3.80;;;25.60;53.50;;;;;;5077310;28;20059;-68
2023/10/29 07:47:47;;;;;;;7.55;3.67;;;25.60;54.20;;;;;;5078703;28;20032;-68
2023/10/29 07:50:13;;;;;;;4.93;3.38;;;25.60;54.10;;;;;;5074763;28;20033;-68
2023/10/29 07:52:39;;;;;;;5.30;3.58;;;25.70;53.40;;;;;;5073749;28;20032;-68
2023/10/29 07:55:07;;;;;;;6.78;3.90;;;25.80;53.00;;;;;;5072444;28;20458;-68
2023/10/29 07:57:33;;;;;;;5.47;3.67;;;25.60;52.70;;;;;;5086009;28;20114;-67
2023/10/29 07:59:59;;;;;;;5.63;3.13;;;25.70;52.60;;;;;;5092535;28;20140;-68
2023/10/29 08:02:25;;;;;;;6.03;3.17;;;25.60;52.40;;;;;;5092601;28;20044;-69
2023/10/29 08:04:51;;;;;;;4.07;3.10;;;25.70;52.30;;;;;;5092091;28;20061;-70
2023/10/29 08:07:17;;;;;;;5.28;2.63;;;25.70;52.10;;;;;;5092540;28;20032;-69
2023/10/29 08:09:43;;;;;;;3.10;2.17;;;25.70;52.10;;;;;;5091901;28;20384;-70
2023/10/29 08:12:10;;;;;;;3.90;2.70;;;25.70;52.10;;;;;;5080706;28;20044;-69
2023/10/29 08:14:36;;;;;;;3.78;2.35;;;25.70;51.80;;;;;;5090798;28;20479;-69
2023/10/29 08:17:03;;;;;;;3.38;2.13;;;25.70;51.90;;;;;;5084176;28;20032;-67
2023/10/29 08:19:29;;;;;;;4.85;2.13;;;25.70;52.00;;;;;;5071759;28;20029;-69
2023/10/29 08:21:55;;;;;;;4.53;2.45;;;25.70;52.10;;;;;;5088470;28;20032;-72
2023/10/29 08:24:21;;;;;;;6.20;2.75;;;25.60;52.20;;;;;;5088174;28;20058;-67
2023/10/29 08:26:47;;;;;;;3.00;1.92;;;25.60;52.10;;;;;;5087942;28;20032;-67
2023/10/29 08:29:13;;;;;;;2.45;2.25;;;25.60;52.10;;;;;;5092158;28;20028;-66
2023/10/29 08:31:39;;;;;;;4.75;2.35;;;25.70;52.10;;;;;;5092026;28;20063;-68
2023/10/29 08:34:05;;;;;;;3.78;2.40;;;25.60;51.70;;;;;;5089778;28;20047;-68
2023/10/29 08:36:31;;;;;;;2.55;2.00;;;25.60;50.60;;;;;;5092014;28;20107;-68
2023/10/29 08:38:57;;;;;;;5.28;2.10;;;25.60;51.30;;;;;;5091773;28;20039;-68
2023/10/29 08:41:23;;;;;;;2.47;1.80;;;25.60;51.60;;;;;;5083954;28;20119;-68
2023/10/29 08:43:52;;;;;;;7.25;2.45;;;25.60;51.70;;;;;;5071680;28;20167;-68
2023/10/29 08:46:18;;;;;;;4.18;1.92;;;25.60;51.70;;;;;;5071835;28;20484;-67
2023/10/29 08:48:44;;;;;;;2.97;1.90;;;25.60;51.60;;;;;;5069093;28;20403;-67
2023/10/29 08:51:11;;;;;;;2.40;1.70;;;25.60;51.50;;;;;;5089212;28;20044;-67
2023/10/29 08:53:37;;;;;;;3.05;2.00;;;25.60;51.40;;;;;;5109006;28;20406;-68
2023/10/29 08:56:04;;;;;;;3.50;1.90;;;25.40;51.20;;;;;;5104590;28;20138;-67
2023/10/29 08:58:30;;;;;;;3.20;2.20;;;25.40;51.20;;;;;;5071604;28;20076;-68
2023/10/29 09:00:57;;;;;;;3.13;1.98;;;25.40;51.20;;;;;;5071235;28;20039;-68
2023/10/29 09:03:24;;;;;;;3.13;1.50;;;25.40;51.40;;;;;;5071562;28;20033;-68
2023/10/29 09:05:51;;;;;;;2.28;1.90;;;25.50;51.40;;;;;;5071327;28;20047;-67
2023/10/29 09:08:17;;;;;;;4.22;1.90;;;25.50;51.70;;;;;;5071137;28;20111;-68
2023/10/29 09:10:45;;;;;;;4.75;2.03;;;25.40;51.80;;;;;;5072563;28;20127;-69
2023/10/29 09:13:11;;;;;;;2.20;1.60;;;25.60;51.80;;;;;;5075985;28;20044;-68
2023/10/29 09:15:37;;;;;;;1.98;1.58;;;25.60;51.80;;;;;;5090868;28;20055;-69
2023/10/29 09:18:04;;;;;;;3.72;1.90;;;25.40;51.80;;;;;;5089811;28;20039;-67
2023/10/29 09:20:31;;;;;;;3.70;2.13;;;25.50;51.80;;;;;;5089766;28;20475;-67
2023/10/29 09:22:57;;;;;;;4.38;2.13;;;25.50;51.70;;;;;;5088477;28;20082;-66
2023/10/29 09:25:23;;;;;;;2.58;1.52;;;25.40;51.90;;;;;;5090111;28;20028;-67
2023/10/29 09:27:49;;;;;;;2.28;1.85;;;25.50;52.00;;;;;;5089121;28;20059;-68
2023/10/29 09:30:15;;;;;;;4.38;1.92;;;25.50;52.20;;;;;;5091014;28;20036;-69
2023/10/29 09:32:41;;;;;;;7.07;1.95;;;25.60;52.20;;;;;;5090840;28;20391;-70
2023/10/29 09:35:07;;;;;;;3.47;2.15;;;25.50;52.30;;;;;;5090996;28;20543;-68
2023/10/29 09:37:36;;;;;;;2.75;1.58;;;25.60;52.40;;;;;;5091298;28;20028;-70
2023/10/29 09:40:03;;;;;;;7.68;1.98;;;25.60;52.30;;;;;;5090916;28;20391;-75
2023/10/29 09:42:29;;;;;;;3.13;1.65;;;25.60;52.30;;;;;;5086996;28;20063;-69
2023/10/29 09:44:58;;;;;;;5.22;1.67;;;25.60;52.30;;;;;;5090448;28;20032;-67
2023/10/29 09:47:27;;;;;;;3.70;1.65;;;25.50;52.30;;;;;;5090764;28;20028;-69
2023/10/29 09:49:57;;;;;;;2.78;1.52;;;25.60;52.30;;;;;;5082350;28;20047;-73
2023/10/29 09:52:32;;;;;;;3.83;1.25;;;25.70;52.30;;;;;;5090956;28;20024;-69
2023/10/29 09:55:00;;;;;;;1.60;1.50;;;25.70;52.40;;;;;;5079161;28;20413;-69
2023/10/29 09:57:26;;;;;;;3.13;2.30;;;25.70;52.40;;;;;;5090851;28;20036;-67
2023/10/29 09:59:52;;;;;;;3.95;2.20;;;25.70;52.50;;;;;;5089610;28;20418;-68
2023/10/29 10:02:19;;;;;;;7.10;2.08;;;25.70;52.40;;;;;;5090292;28;20040;-68
2023/10/29 10:04:47;;;;;;;2.40;2.15;;;25.70;52.50;;;;;;5090406;28;20056;-68
2023/10/29 10:07:15;;;;;;;1.98;1.75;;;25.50;52.50;;;;;;5092807;28;20395;-68
2023/10/29 10:09:54;;;;;;;6.53;2.35;;;25.60;52.50;;;;;;5091893;28;20349;-70
2023/10/29 10:12:22;;;;;;;2.45;1.52;;;25.70;52.50;;;;;;5094606;28;20043;-68
2023/10/29 10:14:50;;;;;;;4.82;1.95;;;25.70;52.60;;;;;;5082265;28;20056;-69
2023/10/29 10:17:17;;;;;;;7.40;1.90;;;25.80;52.50;;;;;;5091286;28;20028;-68
2023/10/29 10:19:43;;;;;;;10.18;2.10;;;25.70;52.80;;;;;;5086980;28;20071;-69
2023/10/29 10:22:09;;;;;;;3.58;1.65;;;25.70;53.40;;;;;;5087350;28;20036;-69
2023/10/29 10:24:47;;;;;;;3.10;1.73;;;25.90;53.40;;;;;;5094085;28;20032;-69
2023/10/29 10:27:13;;;;;;;9.68;1.80;;;25.90;53.20;;;;;;5079110;28;20394;-68
2023/10/29 10:29:39;;;;;;;2.05;1.45;;;26.00;53.60;;;;;;5099790;28;20044;-68
2023/10/29 10:32:06;;;;;;;5.63;1.58;;;26.00;53.30;;;;;;5081896;28;20064;-68
2023/10/29 10:34:37;;;;;;;4.15;1.88;;;26.10;52.30;;;;;;5089915;28;20577;-70
2023/10/29 10:37:04;;;;;;;3.25;1.33;;;26.20;51.00;;;;;;5092131;28;20130;-71
2023/10/29 10:39:31;;;;;;;2.78;1.00;;;26.20;48.30;;;;;;5094423;28;20035;-74
2023/10/29 10:42:00;;;;;;;1.92;1.08;;;26.50;45.90;;;;;;5076840;28;20028;-70
2023/10/29 10:44:29;;;;;;;1.83;1.60;;;26.40;45.30;;;;;;5073872;28;20025;-70
2023/10/29 10:46:57;;;;;;;3.00;1.33;;;26.60;43.60;;;;;;5091152;28;20040;-69
2023/10/29 10:49:24;;;;;;;4.25;1.65;;;26.50;42.00;;;;;;5094101;28;20529;-69
2023/10/29 10:51:55;;;;;;;7.30;1.48;;;26.60;42.70;;;;;;5066173;28;20036;-67
2023/10/29 10:54:22;;;;;;;3.67;0.93;;;26.60;42.80;;;;;;5078753;28;20123;-66
2023/10/29 10:56:50;;;;;;;2.53;1.15;;;26.80;44.30;;;;;;5087439;28;20081;-67
2023/10/29 10:59:16;;;;;;;3.10;1.30;;;26.90;44.30;;;;;;5085090;28;20043;-67
2023/10/29 11:01:42;;;;;;;1.95;1.10;;;27.00;44.40;;;;;;5089134;28;21201;-66
2023/10/29 11:04:09;;;;;;;4.05;1.20;;;26.80;43.90;;;;;;5089937;28;20751;-67
2023/10/29 11:06:37;;;;;;;1.27;1.00;;;26.80;43.20;;;;;;5076214;28;20032;-66
2023/10/29 11:09:14;;;;;;;1.85;0.90;;;26.80;43.30;;;;;;5091075;28;20110;-66
2023/10/29 11:11:43;;;;;;;7.18;1.52;;;26.80;43.20;;;;;;5083592;28;20353;-67
2023/10/29 11:14:17;;;;;;;1.08;1.00;;;26.90;43.20;;;;;;5093220;28;20059;-66
2023/10/29 11:16:55;;;;;;;2.58;0.90;;;26.80;43.20;;;;;;5093416;28;20032;-66
2023/10/29 11:19:47;;;;;;;0.80;0.77;;;26.90;43.10;;;;;;5092005;28;20376;-69
2023/10/29 11:22:29;;;;;;;2.08;0.93;;;26.70;44.60;;;;;;5092645;28;20105;-68
2023/10/29 11:25:14;;;;;;;1.30;1.10;;;26.90;46.80;;;;;;5091832;28;20032;-66
2023/10/29 11:27:47;;;;;;;2.47;1.63;;;27.00;48.40;;;;;;5091761;28;20397;-68
2023/10/29 11:30:15;;;;;;;1.27;1.17;;;27.00;49.20;;;;;;5092855;28;20074;-68
2023/10/29 11:32:42;;;;;;;1.95;1.45;;;26.90;49.30;;;;;;5090594;28;20032;-67
2023/10/29 11:35:21;;;;;;;2.00;1.23;;;26.90;49.60;;;;;;5090466;28;20058;-67
2023/10/29 11:37:49;;;;;;;1.08;0.88;;;26.80;49.80;;;;;;5087195;28;20024;-67
2023/10/29 11:40:29;;;;;;;0.80;0.80;;;26.90;47.20;;;;;;5087407;28;20040;-66
2023/10/29 11:42:57;;;;;;;1.10;1.10;;;26.90;46.10;;;;;;5089563;28;20090;-67
2023/10/29 11:45:28;;;;;;;1.65;1.00;;;26.80;45.80;;;;;;5085587;28;20423;-65
2023/10/29 11:48:09;;;;;;;2.50;1.10;;;26.80;45.70;;;;;;5082413;28;20043;-68
2023/10/29 11:51:02;;;;;;;1.10;0.77;;;26.70;45.70;;;;;;5081772;28;20075;-68
2023/10/29 11:53:29;;;;;;;1.35;0.90;;;26.80;45.80;;;;;;5073342;28;20040;-68
2023/10/29 11:55:59;;;;;;;1.25;1.05;;;26.70;45.90;;;;;;5073630;28;20044;-68
2023/10/29 11:58:29;;;;;;;2.20;1.00;;;26.60;46.60;;;;;;5071378;28;20075;-67
2023/10/29 12:00:56;;;;;;;2.83;0.90;;;26.50;46.80;;;;;;5072591;28;20387;-68
2023/10/29 12:03:22;;;;;;;0.75;0.75;;;26.70;46.80;;;;;;5082216;28;20424;-67
2023/10/29 12:05:51;;;;;;;2.90;0.90;;;26.60;46.70;;;;;;5090265;28;20078;-68
2023/10/29 12:08:18;;;;;;;1.00;1.00;;;26.50;46.80;;;;;;5092573;28;20460;-68
2023/10/29 12:10:48;;;;;;;4.32;0.98;;;26.50;46.80;;;;;;5087267;28;20036;-67
2023/10/29 12:13:18;;;;;;;3.10;1.08;;;26.50;46.80;;;;;;5072304;28;20479;-67
2023/10/29 12:15:54;;;;;;;6.57;1.23;;;26.50;46.70;;;;;;5073234;28;20043;-68
2023/10/29 12:18:21;;;;;;;1.42;0.90;;;26.40;46.70;;;;;;5073221;28;20153;-69
2023/10/29 12:21:01;;;;;;;2.75;0.93;;;26.50;46.70;;;;;;5072104;28;20039;-67
2023/10/29 12:23:28;;;;;;;0.95;0.95;;;26.30;46.70;;;;;;5072197;28;20047;-68
2023/10/29 12:25:55;;;;;;;0.85;0.85;;;26.40;46.80;;;;;;5073098;28;20021;-68
2023/10/29 12:28:21;;;;;;;1.23;1.08;;;26.40;46.90;;;;;;5086235;28;20044;-68
2023/10/29 12:30:49;;;;;;;1.67;0.98;;;26.40;46.90;;;;;;5086132;28;20048;-68
2023/10/29 12:33:22;;;;;;;1.00;0.90;;;26.50;46.90;;;;;;5071981;28;20181;-68
2023/10/29 12:35:49;;;;;;;;;;;26.50;46.90;;;;;;5073452;28;20475;-69
2023/10/29 12:38:16;;;;;;;1.67;1.02;;;26.30;46.90;;;;;;5071858;28;19949;-68
2023/10/29 12:41:16;;;;;;;1.30;1.15;;;26.40;46.90;;;;;;5072757;28;20036;-68
2023/10/29 12:43:47;;;;;;;1.40;1.30;;;26.40;46.90;;;;;;5071783;28;20056;-67
2023/10/29 12:46:17;;;;;;;1.00;0.90;;;26.40;46.90;;;;;;5069557;28;20055;-69
2023/10/29 12:49:08;;;;;;;1.40;1.00;;;26.50;46.90;;;;;;5071648;28;20085;-69